createdAt,value
2022-11-18T00:02:20.193Z,9.4
2022-11-18T00:07:20.205Z,9.4
2022-11-18T00:12:20.146Z,9.3
2022-11-18T00:17:20.153Z,9.3
2022-11-18T00:22:21.568Z,9.3
2022-11-18T00:27:20.149Z,9.3
2022-11-18T00:32:20.151Z,9.3
2022-11-18T00:37:20.166Z,9.3
2022-11-18T00:42:20.150Z,9.3
2022-11-18T00:47:20.258Z,9.2
2022-11-18T00:52:20.157Z,9.2
2022-11-18T00:57:20.161Z,9.2
2022-11-18T01:02:20.155Z,9.3
2022-11-18T01:12:20.160Z,9.3
2022-11-18T01:17:20.167Z,9.3
2022-11-18T01:22:20.177Z,9.4
2022-11-18T01:27:20.170Z,9.4
2022-11-18T01:32:25.376Z,9.5
2022-11-18T01:37:20.177Z,9.5
2022-11-18T01:42:20.189Z,9.6
2022-11-18T01:47:20.177Z,9.6
2022-11-18T01:52:20.254Z,9.6
2022-11-18T01:57:20.179Z,9.7
2022-11-18T02:02:20.183Z,9.7
2022-11-18T02:07:20.234Z,9.8
2022-11-18T02:12:20.284Z,9.8
2022-11-18T02:17:20.192Z,9.8
2022-11-18T02:22:20.189Z,9.9
2022-11-18T02:27:20.186Z,9.9
2022-11-18T02:32:20.197Z,9.9
2022-11-18T02:37:20.205Z,9.9
2022-11-18T02:42:20.194Z,9.9
2022-11-18T02:47:20.197Z,10.0
2022-11-18T02:52:20.192Z,10.0
2022-11-18T02:57:20.213Z,10.0
2022-11-18T03:02:20.213Z,10.1
2022-11-18T03:07:20.301Z,10.1
2022-11-18T03:12:20.207Z,10.1
2022-11-18T03:17:20.199Z,10.1
2022-11-18T03:22:20.204Z,10.2
2022-11-18T03:27:20.209Z,10.2
2022-11-18T03:32:20.214Z,10.2
2022-11-18T03:37:20.223Z,10.2
2022-11-18T03:42:20.219Z,10.3
2022-11-18T03:47:20.218Z,10.3
2022-11-18T03:52:20.215Z,10.3
2022-11-18T03:57:20.224Z,10.3
2022-11-18T04:02:20.252Z,10.3
2022-11-18T04:07:20.273Z,10.3
2022-11-18T04:12:20.221Z,10.3
2022-11-18T04:17:20.230Z,10.3
2022-11-18T04:22:20.241Z,10.3
2022-11-18T04:27:20.235Z,10.3
2022-11-18T04:32:20.229Z,10.3
2022-11-18T04:37:20.230Z,10.3
2022-11-18T04:42:20.249Z,10.4
2022-11-18T04:47:20.241Z,10.3
2022-11-18T04:52:20.137Z,10.3
2022-11-18T04:57:20.238Z,10.3
2022-11-18T05:02:20.241Z,10.3
2022-11-18T05:07:20.304Z,10.3
2022-11-18T05:12:20.281Z,10.3
2022-11-18T05:17:20.277Z,10.3
2022-11-18T05:22:20.271Z,10.3
2022-11-18T05:27:20.257Z,10.3
2022-11-18T05:32:20.248Z,10.3
2022-11-18T05:37:20.251Z,10.2
2022-11-18T05:42:20.252Z,10.2
2022-11-18T05:47:20.259Z,10.2
2022-11-18T05:52:20.263Z,10.2
2022-11-18T05:57:20.267Z,10.1
2022-11-18T06:02:20.310Z,10.1
2022-11-18T06:07:20.379Z,10.0
2022-11-18T06:12:20.297Z,9.9
2022-11-18T06:17:20.279Z,9.8
2022-11-18T06:22:20.280Z,9.7
2022-11-18T06:27:20.265Z,9.6
2022-11-18T06:32:20.286Z,9.5
2022-11-18T06:37:20.287Z,9.4
2022-11-18T06:42:20.289Z,9.4
2022-11-18T06:47:20.277Z,9.3
2022-11-18T06:52:20.289Z,9.3
2022-11-18T06:57:20.274Z,9.2
2022-11-18T07:02:20.282Z,9.2
2022-11-18T07:07:20.374Z,9.1
2022-11-18T07:12:20.292Z,9.1
2022-11-18T07:17:20.276Z,9.1
2022-11-18T07:22:20.287Z,9.1
2022-11-18T07:27:20.287Z,9.1
2022-11-18T07:32:20.316Z,9.0
2022-11-18T07:37:20.413Z,9.0
2022-11-18T07:42:20.289Z,9.1
2022-11-18T07:47:20.292Z,9.1
2022-11-18T08:47:20.315Z,9.4
2022-11-18T08:52:20.335Z,9.5
2022-11-18T08:57:20.319Z,9.6
2022-11-18T09:02:20.315Z,9.7
2022-11-18T09:07:20.518Z,9.7
2022-11-18T09:12:20.320Z,9.8
2022-11-18T09:17:20.326Z,9.8
2022-11-18T09:22:20.343Z,9.9
2022-11-18T09:27:20.326Z,9.9
2022-11-18T09:37:20.328Z,10.0
2022-11-18T09:42:20.334Z,10.1
2022-11-18T09:47:20.338Z,10.2
2022-11-18T09:52:20.340Z,10.3
2022-11-18T09:57:20.339Z,10.4
2022-11-18T10:07:20.314Z,10.7
2022-11-18T10:12:20.351Z,10.9
2022-11-18T10:17:20.369Z,11.0
2022-11-18T10:22:24.331Z,11.1
2022-11-18T10:27:20.298Z,11.3
2022-11-18T10:32:20.261Z,11.4
2022-11-18T10:37:20.253Z,11.6
2022-11-18T10:42:20.263Z,11.8
2022-11-18T10:47:20.264Z,12.0
2022-11-18T10:52:20.263Z,12.1
2022-11-18T10:57:20.263Z,12.2
2022-11-18T11:02:20.309Z,12.3
2022-11-18T11:07:20.319Z,12.5
2022-11-18T11:12:20.269Z,12.7
2022-11-18T11:17:20.348Z,12.8
2022-11-18T11:22:20.299Z,12.8
2022-11-18T11:32:20.276Z,12.8
2022-11-18T11:37:20.277Z,12.9
2022-11-18T11:42:20.286Z,12.9
2022-11-18T11:47:20.282Z,13.0
2022-11-18T11:52:20.289Z,13.0
2022-11-18T11:57:20.290Z,13.0
2022-11-18T12:02:20.336Z,13.0
2022-11-18T12:07:20.364Z,13.0
2022-11-18T12:12:20.296Z,13.2
2022-11-18T12:17:20.290Z,13.3
2022-11-18T12:27:20.301Z,13.2
2022-11-18T12:32:20.297Z,13.1
2022-11-18T12:37:20.302Z,13.0
2022-11-18T12:42:20.307Z,13.0
2022-11-18T12:47:20.305Z,13.0
2022-11-18T12:52:20.311Z,13.0
2022-11-18T12:57:20.309Z,13.0
2022-11-18T13:02:20.314Z,12.9
2022-11-18T13:07:20.398Z,12.9
2022-11-18T13:12:20.315Z,13.0
2022-11-18T13:17:20.338Z,13.0
2022-11-18T13:22:20.317Z,13.0
2022-11-18T13:27:20.320Z,13.0
2022-11-18T13:32:20.332Z,13.1
2022-11-18T13:37:20.321Z,13.0
2022-11-18T13:42:20.330Z,13.0
2022-11-18T13:47:20.330Z,13.0
2022-11-18T13:52:20.336Z,12.9
2022-11-18T13:57:20.331Z,12.9
2022-11-18T14:02:20.336Z,12.8
2022-11-18T14:07:20.422Z,12.7
2022-11-18T14:17:20.343Z,12.5
2022-11-18T14:22:20.366Z,12.5
2022-11-18T14:27:20.345Z,12.4
2022-11-18T14:32:20.341Z,12.3
2022-11-18T14:37:20.341Z,12.3
2022-11-18T14:42:20.356Z,12.3
2022-11-18T14:47:20.350Z,12.2
2022-11-18T14:52:20.353Z,12.1
2022-11-18T14:57:20.349Z,12.0
2022-11-18T15:02:20.359Z,11.9
2022-11-18T15:07:24.433Z,11.9
2022-11-18T15:12:20.353Z,11.8
2022-11-18T15:17:20.661Z,11.8
2022-11-18T15:22:20.367Z,11.7
2022-11-18T15:27:20.374Z,11.7
2022-11-18T15:32:20.363Z,11.6
2022-11-18T15:37:20.356Z,11.5
2022-11-18T15:42:23.362Z,11.5
2022-11-18T15:47:20.368Z,11.5
2022-11-18T15:52:20.386Z,11.5
2022-11-18T15:57:20.370Z,11.4
2022-11-18T16:02:20.372Z,11.4
2022-11-18T16:07:20.508Z,11.3
2022-11-18T16:12:20.372Z,11.3
2022-11-18T16:17:20.375Z,11.3
2022-11-18T16:22:20.378Z,11.2
2022-11-18T16:27:20.856Z,11.2
2022-11-18T16:32:20.383Z,11.1
2022-11-18T16:37:20.380Z,11.1
2022-11-18T16:42:20.387Z,11.1
2022-11-18T16:47:20.383Z,11.0
2022-11-18T16:52:20.490Z,11.0
2022-11-18T16:57:20.414Z,11.0
2022-11-18T17:07:20.482Z,10.9
2022-11-18T17:12:22.625Z,10.9
2022-11-18T17:17:20.420Z,10.9
2022-11-18T17:22:20.410Z,10.9
2022-11-18T17:27:20.453Z,10.9
2022-11-18T17:32:20.501Z,10.8
2022-11-18T17:37:20.500Z,10.8
2022-11-18T17:42:20.506Z,10.7
2022-11-18T17:47:20.401Z,10.7
2022-11-18T17:52:20.505Z,10.7
2022-11-18T17:57:20.512Z,10.7
2022-11-18T18:02:20.516Z,10.6
2022-11-18T18:07:20.765Z,10.6
2022-11-18T18:17:20.526Z,10.6
2022-11-18T18:22:20.510Z,10.6
2022-11-18T18:27:20.517Z,10.5
2022-11-18T18:32:20.519Z,10.5
2022-11-18T18:37:20.522Z,10.5
2022-11-18T18:42:20.519Z,10.4
2022-11-18T18:47:20.580Z,10.5
2022-11-18T18:52:20.528Z,10.4
2022-11-18T18:57:20.551Z,10.4
2022-11-18T19:02:20.423Z,10.4
2022-11-18T19:07:20.586Z,10.4
2022-11-18T19:12:20.599Z,10.3
2022-11-18T19:17:20.604Z,10.2
2022-11-18T19:22:20.534Z,10.1
2022-11-18T19:27:20.533Z,10.1
2022-11-18T19:32:20.541Z,10.1
2022-11-18T19:37:20.536Z,10.1
2022-11-18T19:42:20.584Z,10.0
2022-11-18T19:52:20.542Z,9.9
2022-11-18T19:57:20.545Z,9.9
2022-11-18T20:02:20.541Z,9.8
2022-11-18T20:07:20.652Z,9.8
2022-11-18T20:12:20.547Z,9.7
2022-11-18T20:17:20.553Z,9.7
2022-11-18T20:22:20.566Z,9.6
2022-11-18T20:27:20.544Z,9.6
2022-11-18T20:32:20.553Z,9.6
2022-11-18T20:37:24.362Z,9.6
2022-11-18T20:47:20.553Z,9.6
2022-11-18T20:52:20.560Z,9.5
2022-11-18T20:57:20.567Z,9.5
2022-11-18T21:02:20.558Z,9.5
2022-11-18T21:07:20.600Z,9.4
2022-11-18T21:12:20.558Z,9.3
2022-11-18T21:17:20.563Z,9.2
2022-11-18T21:27:20.568Z,9.1
2022-11-18T21:32:20.559Z,9.0
2022-11-18T21:37:20.573Z,8.8
2022-11-18T21:42:20.567Z,8.7
2022-11-18T21:47:20.565Z,8.6
2022-11-18T21:52:20.566Z,8.4
2022-11-18T21:57:20.568Z,8.2
2022-11-18T22:02:20.581Z,8.0
2022-11-18T22:07:20.623Z,7.8
2022-11-18T22:12:20.571Z,7.7
2022-11-18T22:17:20.571Z,7.5
2022-11-18T22:22:20.572Z,7.4
2022-11-18T22:27:20.565Z,7.3
2022-11-18T22:32:20.574Z,7.1
2022-11-18T22:37:20.586Z,6.9
2022-11-18T22:42:20.569Z,6.8
2022-11-18T22:47:20.576Z,6.8
2022-11-18T22:52:20.575Z,6.7
2022-11-18T22:57:20.582Z,6.7
2022-11-18T23:02:20.578Z,6.6
2022-11-18T23:07:20.672Z,6.5
2022-11-18T23:12:20.596Z,6.5
2022-11-18T23:17:20.584Z,6.4
2022-11-18T23:22:20.581Z,6.3
2022-11-18T23:27:20.582Z,6.2
2022-11-18T23:32:20.583Z,6.2
2022-11-18T23:37:20.581Z,6.1
2022-11-18T23:42:20.583Z,6.2
2022-11-18T23:47:20.588Z,6.2
2022-11-18T23:52:20.588Z,6.1
2022-11-18T23:57:20.586Z,6.1
